sensor_id;sensor_type;location;lat;lon;timestamp;P1;durP1;ratioP1;P2;durP2;ratioP2
47349;SDS011;33088;51.982;5.872;2022-12-18T00:00:43;103.10;;;37.15;;
47349;SDS011;33088;51.982;5.872;2022-12-18T00:03:11;83.95;;;33.20;;
47349;SDS011;33088;51.982;5.872;2022-12-18T00:05:49;97.95;;;36.17;;
47349;SDS011;33088;51.982;5.872;2022-12-18T00:08:16;105.65;;;36.05;;
47349;SDS011;33088;51.982;5.872;2022-12-18T00:10:43;85.10;;;33.15;;
47349;SDS011;33088;51.982;5.872;2022-12-18T00:13:09;75.85;;;31.27;;
47349;SDS011;33088;51.982;5.872;2022-12-18T00:15:35;89.82;;;35.28;;
47349;SDS011;33088;51.982;5.872;2022-12-18T00:18:03;89.57;;;35.17;;
47349;SDS011;33088;51.982;5.872;2022-12-18T00:20:28;91.95;;;33.83;;
47349;SDS011;33088;51.982;5.872;2022-12-18T00:22:54;81.82;;;33.20;;
47349;SDS011;33088;51.982;5.872;2022-12-18T00:25:20;77.00;;;34.10;;
47349;SDS011;33088;51.982;5.872;2022-12-18T00:27:46;86.32;;;33.90;;
47349;SDS011;33088;51.982;5.872;2022-12-18T00:30:13;78.78;;;31.90;;
47349;SDS011;33088;51.982;5.872;2022-12-18T00:32:38;76.07;;;32.28;;
47349;SDS011;33088;51.982;5.872;2022-12-18T00:35:05;88.65;;;32.20;;
47349;SDS011;33088;51.982;5.872;2022-12-18T00:37:32;82.97;;;33.78;;
47349;SDS011;33088;51.982;5.872;2022-12-18T00:39:58;83.07;;;32.67;;
47349;SDS011;33088;51.982;5.872;2022-12-18T00:42:24;79.28;;;33.85;;
47349;SDS011;33088;51.982;5.872;2022-12-18T00:45:09;79.68;;;33.05;;
47349;SDS011;33088;51.982;5.872;2022-12-18T00:47:35;87.82;;;33.85;;
47349;SDS011;33088;51.982;5.872;2022-12-18T00:50:01;74.57;;;33.10;;
47349;SDS011;33088;51.982;5.872;2022-12-18T00:52:26;83.40;;;34.22;;
47349;SDS011;33088;51.982;5.872;2022-12-18T00:54:52;82.80;;;35.85;;
47349;SDS011;33088;51.982;5.872;2022-12-18T00:57:17;84.90;;;33.88;;
47349;SDS011;33088;51.982;5.872;2022-12-18T00:59:43;82.32;;;33.45;;
47349;SDS011;33088;51.982;5.872;2022-12-18T01:02:09;76.20;;;32.83;;
47349;SDS011;33088;51.982;5.872;2022-12-18T01:04:35;76.40;;;31.95;;
47349;SDS011;33088;51.982;5.872;2022-12-18T01:07:01;70.72;;;31.27;;
47349;SDS011;33088;51.982;5.872;2022-12-18T01:09:27;68.60;;;31.25;;
47349;SDS011;33088;51.982;5.872;2022-12-18T01:11:52;73.05;;;31.38;;
47349;SDS011;33088;51.982;5.872;2022-12-18T01:14:18;74.85;;;31.77;;
47349;SDS011;33088;51.982;5.872;2022-12-18T01:16:44;78.10;;;34.47;;
47349;SDS011;33088;51.982;5.872;2022-12-18T01:19:09;73.55;;;30.90;;
47349;SDS011;33088;51.982;5.872;2022-12-18T01:21:35;77.97;;;31.45;;
47349;SDS011;33088;51.982;5.872;2022-12-18T01:24:02;67.25;;;29.65;;
47349;SDS011;33088;51.982;5.872;2022-12-18T01:26:28;71.32;;;29.10;;
47349;SDS011;33088;51.982;5.872;2022-12-18T01:28:57;68.82;;;28.23;;
47349;SDS011;33088;51.982;5.872;2022-12-18T01:31:28;67.93;;;29.60;;
47349;SDS011;33088;51.982;5.872;2022-12-18T01:33:56;66.07;;;28.55;;
47349;SDS011;33088;51.982;5.872;2022-12-18T01:36:26;55.10;;;25.95;;
47349;SDS011;33088;51.982;5.872;2022-12-18T01:38:56;73.18;;;27.83;;
47349;SDS011;33088;51.982;5.872;2022-12-18T01:41:26;68.45;;;28.40;;
47349;SDS011;33088;51.982;5.872;2022-12-18T01:47:36;59.22;;;27.20;;
47349;SDS011;33088;51.982;5.872;2022-12-18T01:50:08;71.45;;;27.10;;
47349;SDS011;33088;51.982;5.872;2022-12-18T01:52:38;58.97;;;25.90;;
47349;SDS011;33088;51.982;5.872;2022-12-18T01:55:07;57.25;;;26.85;;
47349;SDS011;33088;51.982;5.872;2022-12-18T01:57:34;67.00;;;26.73;;
47349;SDS011;33088;51.982;5.872;2022-12-18T02:00:04;59.40;;;26.63;;
47349;SDS011;33088;51.982;5.872;2022-12-18T02:02:42;63.47;;;28.88;;
47349;SDS011;33088;51.982;5.872;2022-12-18T02:05:11;54.58;;;24.92;;
47349;SDS011;33088;51.982;5.872;2022-12-18T02:13:30;62.00;;;25.55;;
47349;SDS011;33088;51.982;5.872;2022-12-18T02:16:19;55.63;;;23.42;;
47349;SDS011;33088;51.982;5.872;2022-12-18T02:18:53;52.45;;;22.88;;
47349;SDS011;33088;51.982;5.872;2022-12-18T02:24:17;56.03;;;24.83;;
47349;SDS011;33088;51.982;5.872;2022-12-18T02:26:59;66.10;;;25.65;;
47349;SDS011;33088;51.982;5.872;2022-12-18T02:29:37;59.38;;;24.48;;
47349;SDS011;33088;51.982;5.872;2022-12-18T02:32:08;58.00;;;25.83;;
47349;SDS011;33088;51.982;5.872;2022-12-18T02:34:39;51.10;;;23.08;;
47349;SDS011;33088;51.982;5.872;2022-12-18T02:37:11;49.80;;;23.60;;
47349;SDS011;33088;51.982;5.872;2022-12-18T02:39:40;54.40;;;23.15;;
47349;SDS011;33088;51.982;5.872;2022-12-18T02:42:10;45.65;;;22.88;;
47349;SDS011;33088;51.982;5.872;2022-12-18T02:44:43;48.95;;;21.40;;
47349;SDS011;33088;51.982;5.872;2022-12-18T02:47:11;49.78;;;23.63;;
47349;SDS011;33088;51.982;5.872;2022-12-18T02:49:51;47.72;;;23.33;;
47349;SDS011;33088;51.982;5.872;2022-12-18T02:55:32;47.42;;;21.98;;
47349;SDS011;33088;51.982;5.872;2022-12-18T03:01:15;46.88;;;21.13;;
47349;SDS011;33088;51.982;5.872;2022-12-18T03:03:48;45.33;;;19.85;;
47349;SDS011;33088;51.982;5.872;2022-12-18T03:06:46;51.70;;;23.00;;
47349;SDS011;33088;51.982;5.872;2022-12-18T03:11:48;53.92;;;22.50;;
47349;SDS011;33088;51.982;5.872;2022-12-18T03:17:07;51.40;;;22.60;;
47349;SDS011;33088;51.982;5.872;2022-12-18T03:19:39;49.03;;;20.70;;
47349;SDS011;33088;51.982;5.872;2022-12-18T03:22:07;55.83;;;22.98;;
47349;SDS011;33088;51.982;5.872;2022-12-18T03:24:42;56.80;;;23.02;;
47349;SDS011;33088;51.982;5.872;2022-12-18T03:27:13;50.10;;;22.23;;
47349;SDS011;33088;51.982;5.872;2022-12-18T03:32:27;50.08;;;21.85;;
47349;SDS011;33088;51.982;5.872;2022-12-18T03:34:58;47.33;;;21.40;;
47349;SDS011;33088;51.982;5.872;2022-12-18T03:37:31;60.13;;;23.23;;
47349;SDS011;33088;51.982;5.872;2022-12-18T03:39:57;44.08;;;21.85;;
47349;SDS011;33088;51.982;5.872;2022-12-18T03:42:28;52.85;;;22.98;;
47349;SDS011;33088;51.982;5.872;2022-12-18T03:45:10;47.72;;;24.27;;
47349;SDS011;33088;51.982;5.872;2022-12-18T03:48:10;47.72;;;21.13;;
47349;SDS011;33088;51.982;5.872;2022-12-18T03:50:46;52.50;;;21.00;;
47349;SDS011;33088;51.982;5.872;2022-12-18T03:53:35;47.40;;;21.20;;
47349;SDS011;33088;51.982;5.872;2022-12-18T03:56:06;46.88;;;22.58;;
47349;SDS011;33088;51.982;5.872;2022-12-18T03:58:37;51.47;;;20.48;;
47349;SDS011;33088;51.982;5.872;2022-12-18T04:01:14;40.90;;;19.52;;
47349;SDS011;33088;51.982;5.872;2022-12-18T04:03:42;41.40;;;21.35;;
47349;SDS011;33088;51.982;5.872;2022-12-18T04:06:10;46.58;;;20.92;;
47349;SDS011;33088;51.982;5.872;2022-12-18T04:08:38;44.92;;;20.25;;
47349;SDS011;33088;51.982;5.872;2022-12-18T04:11:08;40.60;;;18.20;;
47349;SDS011;33088;51.982;5.872;2022-12-18T04:13:35;40.30;;;19.38;;
47349;SDS011;33088;51.982;5.872;2022-12-18T04:16:04;37.78;;;18.13;;
47349;SDS011;33088;51.982;5.872;2022-12-18T04:18:31;38.78;;;18.05;;
47349;SDS011;33088;51.982;5.872;2022-12-18T04:20:58;38.33;;;17.70;;
47349;SDS011;33088;51.982;5.872;2022-12-18T04:23:24;42.22;;;19.02;;
47349;SDS011;33088;51.982;5.872;2022-12-18T04:25:52;42.53;;;19.60;;
47349;SDS011;33088;51.982;5.872;2022-12-18T04:28:31;42.53;;;19.27;;
47349;SDS011;33088;51.982;5.872;2022-12-18T04:30:56;41.88;;;20.65;;
47349;SDS011;33088;51.982;5.872;2022-12-18T04:33:22;45.20;;;21.63;;
47349;SDS011;33088;51.982;5.872;2022-12-18T04:35:47;42.15;;;20.02;;
47349;SDS011;33088;51.982;5.872;2022-12-18T04:38:13;38.90;;;18.05;;
47349;SDS011;33088;51.982;5.872;2022-12-18T04:40:39;39.30;;;18.02;;
47349;SDS011;33088;51.982;5.872;2022-12-18T04:43:12;41.15;;;19.70;;
47349;SDS011;33088;51.982;5.872;2022-12-18T04:45:38;33.75;;;17.40;;
47349;SDS011;33088;51.982;5.872;2022-12-18T04:48:04;34.80;;;16.40;;
47349;SDS011;33088;51.982;5.872;2022-12-18T04:50:30;37.95;;;17.80;;
47349;SDS011;33088;51.982;5.872;2022-12-18T04:52:56;37.50;;;15.23;;
47349;SDS011;33088;51.982;5.872;2022-12-18T04:55:22;34.00;;;16.02;;
47349;SDS011;33088;51.982;5.872;2022-12-18T04:57:47;30.33;;;15.45;;
47349;SDS011;33088;51.982;5.872;2022-12-18T05:00:13;33.33;;;15.48;;
47349;SDS011;33088;51.982;5.872;2022-12-18T05:02:39;38.30;;;16.88;;
47349;SDS011;33088;51.982;5.872;2022-12-18T05:05:05;38.22;;;16.92;;
47349;SDS011;33088;51.982;5.872;2022-12-18T05:07:31;32.45;;;15.07;;
47349;SDS011;33088;51.982;5.872;2022-12-18T05:09:56;28.92;;;15.45;;
47349;SDS011;33088;51.982;5.872;2022-12-18T05:12:22;26.90;;;14.00;;
47349;SDS011;33088;51.982;5.872;2022-12-18T05:14:49;32.22;;;14.32;;
47349;SDS011;33088;51.982;5.872;2022-12-18T05:17:14;44.47;;;15.98;;
47349;SDS011;33088;51.982;5.872;2022-12-18T05:19:40;27.98;;;14.88;;
47349;SDS011;33088;51.982;5.872;2022-12-18T05:22:05;29.30;;;14.18;;
47349;SDS011;33088;51.982;5.872;2022-12-18T05:24:32;33.25;;;14.48;;
47349;SDS011;33088;51.982;5.872;2022-12-18T05:26:58;37.95;;;15.55;;
47349;SDS011;33088;51.982;5.872;2022-12-18T05:29:24;28.30;;;12.77;;
47349;SDS011;33088;51.982;5.872;2022-12-18T05:31:50;26.40;;;13.40;;
47349;SDS011;33088;51.982;5.872;2022-12-18T05:34:15;27.83;;;14.25;;
47349;SDS011;33088;51.982;5.872;2022-12-18T05:36:41;24.42;;;13.82;;
47349;SDS011;33088;51.982;5.872;2022-12-18T05:39:07;31.55;;;14.57;;
47349;SDS011;33088;51.982;5.872;2022-12-18T05:41:33;31.52;;;14.68;;
47349;SDS011;33088;51.982;5.872;2022-12-18T05:43:58;31.55;;;14.23;;
47349;SDS011;33088;51.982;5.872;2022-12-18T05:46:25;31.88;;;16.05;;
47349;SDS011;33088;51.982;5.872;2022-12-18T05:48:51;26.35;;;13.73;;
47349;SDS011;33088;51.982;5.872;2022-12-18T05:51:18;30.77;;;15.23;;
47349;SDS011;33088;51.982;5.872;2022-12-18T05:53:45;30.80;;;15.05;;
47349;SDS011;33088;51.982;5.872;2022-12-18T05:56:16;27.83;;;14.05;;
47349;SDS011;33088;51.982;5.872;2022-12-18T05:58:44;35.42;;;15.13;;
47349;SDS011;33088;51.982;5.872;2022-12-18T06:01:15;27.70;;;13.63;;
47349;SDS011;33088;51.982;5.872;2022-12-18T06:06:12;27.90;;;13.60;;
47349;SDS011;33088;51.982;5.872;2022-12-18T06:08:43;28.98;;;13.32;;
47349;SDS011;33088;51.982;5.872;2022-12-18T06:11:09;29.58;;;15.13;;
47349;SDS011;33088;51.982;5.872;2022-12-18T06:13:36;29.70;;;13.98;;
47349;SDS011;33088;51.982;5.872;2022-12-18T06:16:03;31.88;;;15.05;;
47349;SDS011;33088;51.982;5.872;2022-12-18T06:18:33;27.45;;;14.30;;
47349;SDS011;33088;51.982;5.872;2022-12-18T06:20:59;26.55;;;14.48;;
47349;SDS011;33088;51.982;5.872;2022-12-18T06:23:25;30.15;;;14.25;;
47349;SDS011;33088;51.982;5.872;2022-12-18T06:25:51;29.77;;;14.73;;
47349;SDS011;33088;51.982;5.872;2022-12-18T06:28:17;29.17;;;14.40;;
47349;SDS011;33088;51.982;5.872;2022-12-18T06:30:43;26.25;;;13.32;;
47349;SDS011;33088;51.982;5.872;2022-12-18T06:33:09;33.15;;;13.60;;
47349;SDS011;33088;51.982;5.872;2022-12-18T06:35:35;30.17;;;14.20;;
47349;SDS011;33088;51.982;5.872;2022-12-18T06:38:01;35.75;;;14.93;;
47349;SDS011;33088;51.982;5.872;2022-12-18T06:40:27;28.88;;;13.70;;
47349;SDS011;33088;51.982;5.872;2022-12-18T06:42:54;28.92;;;13.82;;
47349;SDS011;33088;51.982;5.872;2022-12-18T06:45:20;28.35;;;14.38;;
47349;SDS011;33088;51.982;5.872;2022-12-18T06:47:45;25.90;;;15.50;;
47349;SDS011;33088;51.982;5.872;2022-12-18T06:50:11;25.63;;;14.43;;
47349;SDS011;33088;51.982;5.872;2022-12-18T06:52:37;30.85;;;14.75;;
47349;SDS011;33088;51.982;5.872;2022-12-18T06:55:05;30.70;;;15.43;;
47349;SDS011;33088;51.982;5.872;2022-12-18T06:57:34;37.50;;;14.48;;
47349;SDS011;33088;51.982;5.872;2022-12-18T07:00:00;31.48;;;14.77;;
47349;SDS011;33088;51.982;5.872;2022-12-18T07:02:26;32.05;;;15.68;;
47349;SDS011;33088;51.982;5.872;2022-12-18T07:04:51;30.63;;;15.77;;
47349;SDS011;33088;51.982;5.872;2022-12-18T07:07:17;33.17;;;14.88;;
47349;SDS011;33088;51.982;5.872;2022-12-18T07:09:43;25.42;;;14.18;;
47349;SDS011;33088;51.982;5.872;2022-12-18T07:12:08;26.13;;;13.13;;
47349;SDS011;33088;51.982;5.872;2022-12-18T07:14:34;26.10;;;14.38;;
47349;SDS011;33088;51.982;5.872;2022-12-18T07:17:02;29.98;;;15.20;;
47349;SDS011;33088;51.982;5.872;2022-12-18T07:19:28;28.88;;;14.93;;
47349;SDS011;33088;51.982;5.872;2022-12-18T07:21:54;22.63;;;13.45;;
47349;SDS011;33088;51.982;5.872;2022-12-18T07:24:20;26.63;;;13.48;;
47349;SDS011;33088;51.982;5.872;2022-12-18T07:26:45;28.05;;;14.00;;
47349;SDS011;33088;51.982;5.872;2022-12-18T07:29:11;31.27;;;13.55;;
47349;SDS011;33088;51.982;5.872;2022-12-18T07:31:38;30.73;;;14.57;;
47349;SDS011;33088;51.982;5.872;2022-12-18T07:34:03;30.15;;;14.00;;
47349;SDS011;33088;51.982;5.872;2022-12-18T07:36:29;24.20;;;13.65;;
47349;SDS011;33088;51.982;5.872;2022-12-18T07:38:54;26.95;;;12.65;;
47349;SDS011;33088;51.982;5.872;2022-12-18T07:41:21;28.42;;;13.20;;
47349;SDS011;33088;51.982;5.872;2022-12-18T07:43:47;24.50;;;12.40;;
47349;SDS011;33088;51.982;5.872;2022-12-18T07:46:13;29.30;;;14.25;;
47349;SDS011;33088;51.982;5.872;2022-12-18T07:48:40;28.45;;;13.40;;
47349;SDS011;33088;51.982;5.872;2022-12-18T07:51:06;23.42;;;10.85;;
47349;SDS011;33088;51.982;5.872;2022-12-18T07:53:33;25.08;;;12.07;;
47349;SDS011;33088;51.982;5.872;2022-12-18T07:56:00;23.50;;;12.25;;
47349;SDS011;33088;51.982;5.872;2022-12-18T07:58:31;22.52;;;11.75;;
47349;SDS011;33088;51.982;5.872;2022-12-18T08:03:30;22.65;;;11.73;;
47349;SDS011;33088;51.982;5.872;2022-12-18T08:06:01;22.45;;;11.85;;
47349;SDS011;33088;51.982;5.872;2022-12-18T08:08:28;26.67;;;13.02;;
47349;SDS011;33088;51.982;5.872;2022-12-18T08:10:54;25.65;;;11.18;;
47349;SDS011;33088;51.982;5.872;2022-12-18T08:13:21;22.60;;;11.80;;
47349;SDS011;33088;51.982;5.872;2022-12-18T08:15:54;22.58;;;11.35;;
47349;SDS011;33088;51.982;5.872;2022-12-18T08:18:24;24.20;;;11.73;;
47349;SDS011;33088;51.982;5.872;2022-12-18T08:20:50;22.20;;;11.80;;
47349;SDS011;33088;51.982;5.872;2022-12-18T08:23:16;26.15;;;12.57;;
47349;SDS011;33088;51.982;5.872;2022-12-18T08:25:41;19.40;;;11.43;;
47349;SDS011;33088;51.982;5.872;2022-12-18T08:28:07;26.58;;;13.07;;
47349;SDS011;33088;51.982;5.872;2022-12-18T08:30:33;25.23;;;12.10;;
47349;SDS011;33088;51.982;5.872;2022-12-18T08:32:58;21.83;;;10.10;;
47349;SDS011;33088;51.982;5.872;2022-12-18T08:35:24;17.48;;;9.98;;
47349;SDS011;33088;51.982;5.872;2022-12-18T08:37:49;21.80;;;11.20;;
47349;SDS011;33088;51.982;5.872;2022-12-18T08:40:15;19.75;;;9.50;;
47349;SDS011;33088;51.982;5.872;2022-12-18T08:42:41;18.10;;;9.30;;
47349;SDS011;33088;51.982;5.872;2022-12-18T08:45:25;20.92;;;9.55;;
47349;SDS011;33088;51.982;5.872;2022-12-18T08:47:51;21.35;;;10.38;;
47349;SDS011;33088;51.982;5.872;2022-12-18T08:50:16;17.27;;;9.45;;
47349;SDS011;33088;51.982;5.872;2022-12-18T08:52:42;18.88;;;9.70;;
47349;SDS011;33088;51.982;5.872;2022-12-18T08:55:08;19.70;;;9.95;;
47349;SDS011;33088;51.982;5.872;2022-12-18T08:57:34;23.05;;;10.27;;
47349;SDS011;33088;51.982;5.872;2022-12-18T09:00:03;18.30;;;9.65;;
47349;SDS011;33088;51.982;5.872;2022-12-18T09:02:30;21.40;;;9.52;;
47349;SDS011;33088;51.982;5.872;2022-12-18T09:04:56;20.58;;;9.73;;
47349;SDS011;33088;51.982;5.872;2022-12-18T09:07:22;17.92;;;8.98;;
47349;SDS011;33088;51.982;5.872;2022-12-18T09:09:47;17.05;;;8.80;;
47349;SDS011;33088;51.982;5.872;2022-12-18T09:12:13;23.40;;;9.55;;
47349;SDS011;33088;51.982;5.872;2022-12-18T09:14:39;23.27;;;9.98;;
47349;SDS011;33088;51.982;5.872;2022-12-18T09:17:04;18.58;;;9.75;;
47349;SDS011;33088;51.982;5.872;2022-12-18T09:19:30;15.40;;;9.10;;
47349;SDS011;33088;51.982;5.872;2022-12-18T09:21:55;19.35;;;9.43;;
47349;SDS011;33088;51.982;5.872;2022-12-18T09:24:21;18.77;;;9.10;;
47349;SDS011;33088;51.982;5.872;2022-12-18T09:26:47;19.15;;;9.30;;
47349;SDS011;33088;51.982;5.872;2022-12-18T09:29:12;15.82;;;8.20;;
47349;SDS011;33088;51.982;5.872;2022-12-18T09:31:39;18.00;;;9.55;;
47349;SDS011;33088;51.982;5.872;2022-12-18T09:34:05;16.10;;;8.35;;
47349;SDS011;33088;51.982;5.872;2022-12-18T09:36:31;19.98;;;9.60;;
47349;SDS011;33088;51.982;5.872;2022-12-18T09:38:56;14.90;;;8.35;;
47349;SDS011;33088;51.982;5.872;2022-12-18T09:41:42;17.58;;;8.93;;
47349;SDS011;33088;51.982;5.872;2022-12-18T09:49:46;16.20;;;8.55;;
47349;SDS011;33088;51.982;5.872;2022-12-18T09:52:17;17.40;;;9.50;;
47349;SDS011;33088;51.982;5.872;2022-12-18T09:54:46;17.50;;;9.02;;
47349;SDS011;33088;51.982;5.872;2022-12-18T09:57:25;20.92;;;9.20;;
47349;SDS011;33088;51.982;5.872;2022-12-18T10:00:05;19.80;;;8.80;;
47349;SDS011;33088;51.982;5.872;2022-12-18T10:02:45;17.90;;;9.60;;
47349;SDS011;33088;51.982;5.872;2022-12-18T10:05:25;14.73;;;8.95;;
47349;SDS011;33088;51.982;5.872;2022-12-18T10:08:11;16.77;;;9.13;;
47349;SDS011;33088;51.982;5.872;2022-12-18T10:10:43;20.83;;;9.00;;
47349;SDS011;33088;51.982;5.872;2022-12-18T10:13:19;18.77;;;9.32;;
47349;SDS011;33088;51.982;5.872;2022-12-18T10:16:19;18.27;;;9.02;;
47349;SDS011;33088;51.982;5.872;2022-12-18T10:18:59;20.13;;;9.57;;
47349;SDS011;33088;51.982;5.872;2022-12-18T10:27:14;20.10;;;10.30;;
47349;SDS011;33088;51.982;5.872;2022-12-18T10:29:46;24.92;;;11.45;;
47349;SDS011;33088;51.982;5.872;2022-12-18T10:32:19;17.25;;;8.55;;
47349;SDS011;33088;51.982;5.872;2022-12-18T10:34:48;15.77;;;9.05;;
47349;SDS011;33088;51.982;5.872;2022-12-18T10:37:15;17.60;;;8.85;;
47349;SDS011;33088;51.982;5.872;2022-12-18T10:39:43;21.23;;;9.55;;
47349;SDS011;33088;51.982;5.872;2022-12-18T10:42:19;14.02;;;8.13;;
47349;SDS011;33088;51.982;5.872;2022-12-18T10:44:44;18.77;;;9.05;;
47349;SDS011;33088;51.982;5.872;2022-12-18T10:47:12;17.65;;;8.63;;
47349;SDS011;33088;51.982;5.872;2022-12-18T10:49:47;16.83;;;9.30;;
47349;SDS011;33088;51.982;5.872;2022-12-18T10:52:17;16.48;;;8.60;;
47349;SDS011;33088;51.982;5.872;2022-12-18T10:54:53;16.08;;;9.13;;
47349;SDS011;33088;51.982;5.872;2022-12-18T11:00:25;16.33;;;9.45;;
47349;SDS011;33088;51.982;5.872;2022-12-18T11:02:53;19.15;;;8.82;;
47349;SDS011;33088;51.982;5.872;2022-12-18T11:05:23;17.35;;;9.10;;
47349;SDS011;33088;51.982;5.872;2022-12-18T11:07:51;19.73;;;8.45;;
47349;SDS011;33088;51.982;5.872;2022-12-18T11:10:19;17.50;;;8.57;;
47349;SDS011;33088;51.982;5.872;2022-12-18T11:12:50;15.77;;;8.45;;
47349;SDS011;33088;51.982;5.872;2022-12-18T11:15:16;17.52;;;8.85;;
47349;SDS011;33088;51.982;5.872;2022-12-18T11:17:52;19.15;;;8.77;;
47349;SDS011;33088;51.982;5.872;2022-12-18T11:22:56;19.02;;;9.20;;
47349;SDS011;33088;51.982;5.872;2022-12-18T11:25:27;15.13;;;8.70;;
47349;SDS011;33088;51.982;5.872;2022-12-18T11:27:58;14.95;;;7.65;;
47349;SDS011;33088;51.982;5.872;2022-12-18T11:33:06;20.80;;;9.48;;
47349;SDS011;33088;51.982;5.872;2022-12-18T11:35:47;18.98;;;9.65;;
47349;SDS011;33088;51.982;5.872;2022-12-18T11:38:25;15.25;;;8.10;;
47349;SDS011;33088;51.982;5.872;2022-12-18T11:41:04;19.17;;;9.45;;
47349;SDS011;33088;51.982;5.872;2022-12-18T11:43:38;20.02;;;8.52;;
47349;SDS011;33088;51.982;5.872;2022-12-18T11:49:06;15.25;;;8.45;;
47349;SDS011;33088;51.982;5.872;2022-12-18T11:54:28;17.23;;;9.05;;
47349;SDS011;33088;51.982;5.872;2022-12-18T11:59:33;15.27;;;8.32;;
47349;SDS011;33088;51.982;5.872;2022-12-18T12:08:22;16.73;;;9.60;;
47349;SDS011;33088;51.982;5.872;2022-12-18T12:21:52;16.25;;;9.25;;
47349;SDS011;33088;51.982;5.872;2022-12-18T12:27:33;16.67;;;9.00;;
47349;SDS011;33088;51.982;5.872;2022-12-18T12:30:06;17.02;;;9.65;;
47349;SDS011;33088;51.982;5.872;2022-12-18T12:37:55;20.10;;;9.43;;
47349;SDS011;33088;51.982;5.872;2022-12-18T12:40:24;17.42;;;9.73;;
47349;SDS011;33088;51.982;5.872;2022-12-18T12:42:58;17.25;;;10.18;;
47349;SDS011;33088;51.982;5.872;2022-12-18T12:48:56;17.75;;;9.75;;
47349;SDS011;33088;51.982;5.872;2022-12-18T12:51:09;16.67;;;8.98;;
47349;SDS011;33088;51.982;5.872;2022-12-18T12:53:38;16.20;;;9.05;;
47349;SDS011;33088;51.982;5.872;2022-12-18T12:56:06;17.33;;;9.38;;
47349;SDS011;33088;51.982;5.872;2022-12-18T13:01:58;16.10;;;9.23;;
47349;SDS011;33088;51.982;5.872;2022-12-18T13:04:47;16.05;;;9.75;;
47349;SDS011;33088;51.982;5.872;2022-12-18T13:07:27;22.02;;;11.88;;
47349;SDS011;33088;51.982;5.872;2022-12-18T13:12:54;19.08;;;9.85;;
47349;SDS011;33088;51.982;5.872;2022-12-18T13:15:38;17.30;;;9.70;;
47349;SDS011;33088;51.982;5.872;2022-12-18T13:21:17;17.83;;;10.00;;
47349;SDS011;33088;51.982;5.872;2022-12-18T13:25:48;19.17;;;9.93;;
47349;SDS011;33088;51.982;5.872;2022-12-18T13:28:49;25.08;;;10.80;;
47349;SDS011;33088;51.982;5.872;2022-12-18T13:36:47;21.20;;;10.73;;
47349;SDS011;33088;51.982;5.872;2022-12-18T13:41:43;18.98;;;9.65;;
47349;SDS011;33088;51.982;5.872;2022-12-18T13:46:59;17.80;;;9.82;;
47349;SDS011;33088;51.982;5.872;2022-12-18T13:52:01;21.95;;;10.75;;
47349;SDS011;33088;51.982;5.872;2022-12-18T13:54:39;17.20;;;10.00;;
47349;SDS011;33088;51.982;5.872;2022-12-18T13:57:24;20.08;;;10.95;;
47349;SDS011;33088;51.982;5.872;2022-12-18T13:59:52;18.63;;;9.93;;
47349;SDS011;33088;51.982;5.872;2022-12-18T14:02:22;24.10;;;11.23;;
47349;SDS011;33088;51.982;5.872;2022-12-18T14:04:53;18.38;;;9.85;;
47349;SDS011;33088;51.982;5.872;2022-12-18T14:07:21;22.10;;;11.43;;
47349;SDS011;33088;51.982;5.872;2022-12-18T14:09:55;20.30;;;10.30;;
47349;SDS011;33088;51.982;5.872;2022-12-18T14:12:26;23.45;;;11.55;;
47349;SDS011;33088;51.982;5.872;2022-12-18T14:17:54;18.35;;;10.52;;
47349;SDS011;33088;51.982;5.872;2022-12-18T14:20:24;17.65;;;9.75;;
47349;SDS011;33088;51.982;5.872;2022-12-18T14:22:51;19.35;;;10.00;;
47349;SDS011;33088;51.982;5.872;2022-12-18T14:25:18;20.15;;;10.07;;
47349;SDS011;33088;51.982;5.872;2022-12-18T14:30:35;17.98;;;9.35;;
47349;SDS011;33088;51.982;5.872;2022-12-18T14:33:08;20.88;;;10.48;;
47349;SDS011;33088;51.982;5.872;2022-12-18T14:38:22;19.48;;;9.65;;
47349;SDS011;33088;51.982;5.872;2022-12-18T14:41:08;20.88;;;11.27;;
47349;SDS011;33088;51.982;5.872;2022-12-18T14:43:37;20.42;;;9.85;;
47349;SDS011;33088;51.982;5.872;2022-12-18T14:46:05;21.98;;;10.90;;
47349;SDS011;33088;51.982;5.872;2022-12-18T14:48:54;21.30;;;10.90;;
47349;SDS011;33088;51.982;5.872;2022-12-18T14:51:22;17.80;;;10.45;;
47349;SDS011;33088;51.982;5.872;2022-12-18T14:56:43;21.83;;;10.10;;
47349;SDS011;33088;51.982;5.872;2022-12-18T14:59:29;19.83;;;9.85;;
47349;SDS011;33088;51.982;5.872;2022-12-18T15:04:46;19.13;;;9.70;;
47349;SDS011;33088;51.982;5.872;2022-12-18T15:07:19;22.10;;;11.05;;
47349;SDS011;33088;51.982;5.872;2022-12-18T15:14:59;22.88;;;11.95;;
47349;SDS011;33088;51.982;5.872;2022-12-18T15:17:25;21.02;;;11.32;;
47349;SDS011;33088;51.982;5.872;2022-12-18T15:19:52;24.48;;;11.45;;
47349;SDS011;33088;51.982;5.872;2022-12-18T15:22:27;22.90;;;11.43;;
47349;SDS011;33088;51.982;5.872;2022-12-18T15:24:55;20.25;;;10.73;;
47349;SDS011;33088;51.982;5.872;2022-12-18T15:27:24;22.77;;;11.50;;
47349;SDS011;33088;51.982;5.872;2022-12-18T15:32:33;21.60;;;11.55;;
47349;SDS011;33088;51.982;5.872;2022-12-18T15:37:34;21.58;;;11.20;;
47349;SDS011;33088;51.982;5.872;2022-12-18T15:40:00;20.45;;;11.52;;
47349;SDS011;33088;51.982;5.872;2022-12-18T15:42:27;22.58;;;11.50;;
47349;SDS011;33088;51.982;5.872;2022-12-18T15:45:12;25.08;;;13.18;;
47349;SDS011;33088;51.982;5.872;2022-12-18T15:47:38;24.30;;;12.52;;
47349;SDS011;33088;51.982;5.872;2022-12-18T15:50:04;31.38;;;15.40;;
47349;SDS011;33088;51.982;5.872;2022-12-18T15:52:31;29.90;;;14.45;;
47349;SDS011;33088;51.982;5.872;2022-12-18T15:55:13;26.05;;;13.10;;
47349;SDS011;33088;51.982;5.872;2022-12-18T15:57:58;25.20;;;13.65;;
47349;SDS011;33088;51.982;5.872;2022-12-18T16:00:24;27.98;;;12.63;;
47349;SDS011;33088;51.982;5.872;2022-12-18T16:02:50;25.40;;;14.13;;
47349;SDS011;33088;51.982;5.872;2022-12-18T16:05:16;22.48;;;11.35;;
47349;SDS011;33088;51.982;5.872;2022-12-18T16:07:44;24.85;;;12.38;;
47349;SDS011;33088;51.982;5.872;2022-12-18T16:10:10;22.63;;;12.65;;
47349;SDS011;33088;51.982;5.872;2022-12-18T16:12:36;25.73;;;12.32;;
47349;SDS011;33088;51.982;5.872;2022-12-18T16:15:03;24.52;;;13.45;;
47349;SDS011;33088;51.982;5.872;2022-12-18T16:17:29;26.83;;;12.70;;
47349;SDS011;33088;51.982;5.872;2022-12-18T16:19:55;24.60;;;12.57;;
47349;SDS011;33088;51.982;5.872;2022-12-18T16:22:22;33.30;;;13.95;;
47349;SDS011;33088;51.982;5.872;2022-12-18T16:24:50;25.83;;;13.23;;
47349;SDS011;33088;51.982;5.872;2022-12-18T16:27:17;28.92;;;15.00;;
47349;SDS011;33088;51.982;5.872;2022-12-18T16:29:43;25.40;;;13.43;;
47349;SDS011;33088;51.982;5.872;2022-12-18T16:32:11;25.10;;;13.85;;
47349;SDS011;33088;51.982;5.872;2022-12-18T16:34:38;23.52;;;12.63;;
47349;SDS011;33088;51.982;5.872;2022-12-18T16:37:05;24.27;;;13.07;;
47349;SDS011;33088;51.982;5.872;2022-12-18T16:39:33;25.85;;;13.02;;
47349;SDS011;33088;51.982;5.872;2022-12-18T16:42:00;34.08;;;15.00;;
47349;SDS011;33088;51.982;5.872;2022-12-18T16:44:30;28.70;;;13.70;;
47349;SDS011;33088;51.982;5.872;2022-12-18T16:46:56;37.92;;;18.40;;
47349;SDS011;33088;51.982;5.872;2022-12-18T16:49:26;31.15;;;16.08;;
47349;SDS011;33088;51.982;5.872;2022-12-18T16:51:53;30.35;;;15.00;;
47349;SDS011;33088;51.982;5.872;2022-12-18T16:54:18;26.50;;;14.55;;
47349;SDS011;33088;51.982;5.872;2022-12-18T16:56:44;28.33;;;13.55;;